sensor_id;sensor_type;location;lat;lon;timestamp;P1;durP1;ratioP1;P2;durP2;ratioP2
41333;SDS011;27078;46.428;6.256;2023-11-22T00:01:10;1.33;;;0.30;;
41333;SDS011;27078;46.428;6.256;2023-11-22T00:03:36;1.23;;;0.40;;
41333;SDS011;27078;46.428;6.256;2023-11-22T00:06:01;2.15;;;0.32;;
41333;SDS011;27078;46.428;6.256;2023-11-22T00:08:26;1.52;;;0.30;;
41333;SDS011;27078;46.428;6.256;2023-11-22T00:10:52;0.50;;;0.30;;
41333;SDS011;27078;46.428;6.256;2023-11-22T00:13:17;0.88;;;0.40;;
41333;SDS011;27078;46.428;6.256;2023-11-22T00:15:42;0.77;;;0.38;;
41333;SDS011;27078;46.428;6.256;2023-11-22T00:18:08;0.60;;;0.40;;
41333;SDS011;27078;46.428;6.256;2023-11-22T00:20:33;0.95;;;0.50;;
41333;SDS011;27078;46.428;6.256;2023-11-22T00:22:58;1.33;;;0.50;;
41333;SDS011;27078;46.428;6.256;2023-11-22T00:25:24;1.02;;;0.60;;
41333;SDS011;27078;46.428;6.256;2023-11-22T00:27:49;2.03;;;0.50;;
41333;SDS011;27078;46.428;6.256;2023-11-22T00:30:15;1.35;;;0.50;;
41333;SDS011;27078;46.428;6.256;2023-11-22T00:32:40;1.88;;;0.50;;
41333;SDS011;27078;46.428;6.256;2023-11-22T00:35:06;0.98;;;0.60;;
41333;SDS011;27078;46.428;6.256;2023-11-22T00:37:33;1.10;;;0.50;;
41333;SDS011;27078;46.428;6.256;2023-11-22T00:39:59;1.42;;;0.73;;
41333;SDS011;27078;46.428;6.256;2023-11-22T00:42:35;1.10;;;0.70;;
41333;SDS011;27078;46.428;6.256;2023-11-22T00:45:06;1.20;;;0.60;;
41333;SDS011;27078;46.428;6.256;2023-11-22T00:47:33;2.00;;;0.80;;
41333;SDS011;27078;46.428;6.256;2023-11-22T00:49:58;1.85;;;0.80;;
41333;SDS011;27078;46.428;6.256;2023-11-22T00:52:24;1.52;;;0.85;;
41333;SDS011;27078;46.428;6.256;2023-11-22T00:54:49;1.10;;;0.80;;
41333;SDS011;27078;46.428;6.256;2023-11-22T00:57:18;1.40;;;0.90;;
41333;SDS011;27078;46.428;6.256;2023-11-22T00:59:43;1.60;;;0.95;;
41333;SDS011;27078;46.428;6.256;2023-11-22T01:02:08;4.07;;;1.10;;
41333;SDS011;27078;46.428;6.256;2023-11-22T01:04:34;2.15;;;1.00;;
41333;SDS011;27078;46.428;6.256;2023-11-22T01:07:01;2.50;;;1.50;;
41333;SDS011;27078;46.428;6.256;2023-11-22T01:09:27;2.33;;;1.48;;
41333;SDS011;27078;46.428;6.256;2023-11-22T01:11:53;1.45;;;1.20;;
41333;SDS011;27078;46.428;6.256;2023-11-22T01:14:19;2.80;;;1.42;;
41333;SDS011;27078;46.428;6.256;2023-11-22T01:16:44;2.15;;;1.48;;
41333;SDS011;27078;46.428;6.256;2023-11-22T01:19:09;2.03;;;1.30;;
41333;SDS011;27078;46.428;6.256;2023-11-22T01:21:35;1.63;;;1.15;;
41333;SDS011;27078;46.428;6.256;2023-11-22T01:24:00;2.35;;;1.50;;
41333;SDS011;27078;46.428;6.256;2023-11-22T01:26:26;1.92;;;1.48;;
41333;SDS011;27078;46.428;6.256;2023-11-22T01:28:51;2.28;;;1.60;;
41333;SDS011;27078;46.428;6.256;2023-11-22T01:31:17;2.17;;;1.55;;
41333;SDS011;27078;46.428;6.256;2023-11-22T01:33:46;2.08;;;1.48;;
41333;SDS011;27078;46.428;6.256;2023-11-22T01:36:11;3.15;;;1.77;;
41333;SDS011;27078;46.428;6.256;2023-11-22T01:38:37;2.22;;;1.60;;
41333;SDS011;27078;46.428;6.256;2023-11-22T01:41:04;2.35;;;1.48;;
41333;SDS011;27078;46.428;6.256;2023-11-22T01:43:29;3.67;;;1.80;;
41333;SDS011;27078;46.428;6.256;2023-11-22T01:45:55;2.13;;;1.10;;
41333;SDS011;27078;46.428;6.256;2023-11-22T01:48:20;2.05;;;1.10;;
41333;SDS011;27078;46.428;6.256;2023-11-22T01:50:46;0.95;;;0.70;;
41333;SDS011;27078;46.428;6.256;2023-11-22T01:53:13;1.63;;;0.65;;
41333;SDS011;27078;46.428;6.256;2023-11-22T01:55:41;3.22;;;1.00;;
41333;SDS011;27078;46.428;6.256;2023-11-22T01:58:08;2.00;;;0.73;;
41333;SDS011;27078;46.428;6.256;2023-11-22T02:00:45;1.60;;;0.60;;
41333;SDS011;27078;46.428;6.256;2023-11-22T02:03:15;0.57;;;0.30;;
41333;SDS011;27078;46.428;6.256;2023-11-22T02:05:44;0.73;;;0.22;;
41333;SDS011;27078;46.428;6.256;2023-11-22T02:08:10;0.75;;;0.30;;
41333;SDS011;27078;46.428;6.256;2023-11-22T02:10:35;0.50;;;0.30;;
41333;SDS011;27078;46.428;6.256;2023-11-22T02:13:05;1.42;;;0.75;;
41333;SDS011;27078;46.428;6.256;2023-11-22T02:15:32;0.70;;;0.35;;
41333;SDS011;27078;46.428;6.256;2023-11-22T02:18:01;0.40;;;0.30;;
41333;SDS011;27078;46.428;6.256;2023-11-22T02:20:27;0.40;;;0.30;;
41333;SDS011;27078;46.428;6.256;2023-11-22T02:22:53;1.50;;;0.30;;
41333;SDS011;27078;46.428;6.256;2023-11-22T02:25:19;1.52;;;0.30;;
41333;SDS011;27078;46.428;6.256;2023-11-22T02:27:45;0.98;;;0.50;;
41333;SDS011;27078;46.428;6.256;2023-11-22T02:30:10;0.70;;;0.38;;
41333;SDS011;27078;46.428;6.256;2023-11-22T02:32:36;0.82;;;0.25;;
41333;SDS011;27078;46.428;6.256;2023-11-22T02:35:01;1.00;;;0.60;;
41333;SDS011;27078;46.428;6.256;2023-11-22T02:37:29;0.60;;;0.30;;
41333;SDS011;27078;46.428;6.256;2023-11-22T02:40:00;0.82;;;0.30;;
41333;SDS011;27078;46.428;6.256;2023-11-22T02:42:29;0.68;;;0.30;;
41333;SDS011;27078;46.428;6.256;2023-11-22T02:44:54;1.15;;;0.65;;
41333;SDS011;27078;46.428;6.256;2023-11-22T02:47:20;2.53;;;1.70;;
41333;SDS011;27078;46.428;6.256;2023-11-22T02:49:45;2.40;;;1.60;;
41333;SDS011;27078;46.428;6.256;2023-11-22T02:52:10;3.20;;;1.90;;
41333;SDS011;27078;46.428;6.256;2023-11-22T02:54:40;3.00;;;1.70;;
41333;SDS011;27078;46.428;6.256;2023-11-22T02:57:08;3.08;;;1.95;;
41333;SDS011;27078;46.428;6.256;2023-11-22T02:59:34;0.85;;;0.60;;
41333;SDS011;27078;46.428;6.256;2023-11-22T03:01:59;1.10;;;0.70;;
41333;SDS011;27078;46.428;6.256;2023-11-22T03:04:26;1.10;;;0.52;;
41333;SDS011;27078;46.428;6.256;2023-11-22T03:06:52;0.93;;;0.40;;
41333;SDS011;27078;46.428;6.256;2023-11-22T03:09:17;1.23;;;0.40;;
41333;SDS011;27078;46.428;6.256;2023-11-22T03:11:42;1.10;;;0.57;;
41333;SDS011;27078;46.428;6.256;2023-11-22T03:14:08;1.92;;;0.50;;
41333;SDS011;27078;46.428;6.256;2023-11-22T03:16:33;1.63;;;0.98;;
41333;SDS011;27078;46.428;6.256;2023-11-22T03:18:59;1.00;;;0.40;;
41333;SDS011;27078;46.428;6.256;2023-11-22T03:21:24;0.90;;;0.50;;
41333;SDS011;27078;46.428;6.256;2023-11-22T03:23:52;0.70;;;0.43;;
41333;SDS011;27078;46.428;6.256;2023-11-22T03:26:18;1.95;;;0.77;;
41333;SDS011;27078;46.428;6.256;2023-11-22T03:28:44;2.60;;;2.05;;
41333;SDS011;27078;46.428;6.256;2023-11-22T03:31:09;3.15;;;2.10;;
41333;SDS011;27078;46.428;6.256;2023-11-22T03:33:35;3.78;;;2.72;;
41333;SDS011;27078;46.428;6.256;2023-11-22T03:36:00;1.90;;;1.30;;
41333;SDS011;27078;46.428;6.256;2023-11-22T03:38:27;1.10;;;0.70;;
41333;SDS011;27078;46.428;6.256;2023-11-22T03:40:52;1.10;;;0.60;;
41333;SDS011;27078;46.428;6.256;2023-11-22T03:43:18;1.63;;;0.80;;
41333;SDS011;27078;46.428;6.256;2023-11-22T03:45:44;3.63;;;2.38;;
41333;SDS011;27078;46.428;6.256;2023-11-22T03:48:09;1.35;;;0.88;;
41333;SDS011;27078;46.428;6.256;2023-11-22T03:50:34;2.15;;;1.20;;
41333;SDS011;27078;46.428;6.256;2023-11-22T03:53:00;3.17;;;1.92;;
41333;SDS011;27078;46.428;6.256;2023-11-22T03:55:25;1.70;;;0.90;;
41333;SDS011;27078;46.428;6.256;2023-11-22T03:57:50;1.92;;;0.98;;
41333;SDS011;27078;46.428;6.256;2023-11-22T04:00:16;1.33;;;0.65;;
41333;SDS011;27078;46.428;6.256;2023-11-22T04:02:42;1.50;;;0.50;;
41333;SDS011;27078;46.428;6.256;2023-11-22T04:05:07;3.42;;;1.50;;
41333;SDS011;27078;46.428;6.256;2023-11-22T04:07:33;2.38;;;0.70;;
41333;SDS011;27078;46.428;6.256;2023-11-22T04:09:58;3.50;;;0.80;;
41333;SDS011;27078;46.428;6.256;2023-11-22T04:12:24;1.60;;;1.17;;
41333;SDS011;27078;46.428;6.256;2023-11-22T04:14:50;3.50;;;1.58;;
41333;SDS011;27078;46.428;6.256;2023-11-22T04:17:16;2.15;;;0.95;;
41333;SDS011;27078;46.428;6.256;2023-11-22T04:19:42;4.53;;;1.80;;
41333;SDS011;27078;46.428;6.256;2023-11-22T04:22:07;2.10;;;1.45;;
41333;SDS011;27078;46.428;6.256;2023-11-22T04:24:32;3.00;;;2.10;;
41333;SDS011;27078;46.428;6.256;2023-11-22T04:26:58;2.72;;;1.40;;
41333;SDS011;27078;46.428;6.256;2023-11-22T04:29:23;2.78;;;1.65;;
41333;SDS011;27078;46.428;6.256;2023-11-22T04:31:48;4.93;;;1.67;;
41333;SDS011;27078;46.428;6.256;2023-11-22T04:34:14;2.65;;;1.60;;
41333;SDS011;27078;46.428;6.256;2023-11-22T04:36:39;3.95;;;1.45;;
41333;SDS011;27078;46.428;6.256;2023-11-22T04:39:04;6.90;;;1.70;;
41333;SDS011;27078;46.428;6.256;2023-11-22T04:41:31;6.65;;;1.23;;
41333;SDS011;27078;46.428;6.256;2023-11-22T04:43:57;3.85;;;1.40;;
41333;SDS011;27078;46.428;6.256;2023-11-22T04:46:22;6.97;;;1.90;;
41333;SDS011;27078;46.428;6.256;2023-11-22T04:48:47;4.15;;;2.03;;
41333;SDS011;27078;46.428;6.256;2023-11-22T04:51:16;4.32;;;1.60;;
41333;SDS011;27078;46.428;6.256;2023-11-22T04:53:41;4.03;;;1.75;;
41333;SDS011;27078;46.428;6.256;2023-11-22T04:56:09;5.82;;;1.60;;
41333;SDS011;27078;46.428;6.256;2023-11-22T04:58:34;4.38;;;1.80;;
41333;SDS011;27078;46.428;6.256;2023-11-22T05:01:00;4.35;;;1.30;;
41333;SDS011;27078;46.428;6.256;2023-11-22T05:03:26;3.42;;;1.10;;
41333;SDS011;27078;46.428;6.256;2023-11-22T05:05:52;5.07;;;1.08;;
41333;SDS011;27078;46.428;6.256;2023-11-22T05:08:17;5.05;;;1.30;;
41333;SDS011;27078;46.428;6.256;2023-11-22T05:10:43;2.40;;;1.90;;
41333;SDS011;27078;46.428;6.256;2023-11-22T05:13:09;2.75;;;1.73;;
41333;SDS011;27078;46.428;6.256;2023-11-22T05:15:34;2.78;;;1.30;;
41333;SDS011;27078;46.428;6.256;2023-11-22T05:17:59;6.07;;;1.15;;
41333;SDS011;27078;46.428;6.256;2023-11-22T05:20:25;4.47;;;1.00;;
41333;SDS011;27078;46.428;6.256;2023-11-22T05:22:50;5.05;;;1.55;;
41333;SDS011;27078;46.428;6.256;2023-11-22T05:25:16;3.10;;;1.20;;
41333;SDS011;27078;46.428;6.256;2023-11-22T05:27:41;3.63;;;1.30;;
41333;SDS011;27078;46.428;6.256;2023-11-22T05:30:07;4.90;;;1.17;;
41333;SDS011;27078;46.428;6.256;2023-11-22T05:32:32;3.42;;;1.10;;
41333;SDS011;27078;46.428;6.256;2023-11-22T05:34:58;3.97;;;0.70;;
41333;SDS011;27078;46.428;6.256;2023-11-22T05:37:24;2.97;;;0.90;;
41333;SDS011;27078;46.428;6.256;2023-11-22T05:39:49;2.10;;;1.08;;
41333;SDS011;27078;46.428;6.256;2023-11-22T05:42:15;3.15;;;0.70;;
41333;SDS011;27078;46.428;6.256;2023-11-22T05:44:40;2.75;;;0.80;;
41333;SDS011;27078;46.428;6.256;2023-11-22T05:47:05;1.50;;;0.68;;
41333;SDS011;27078;46.428;6.256;2023-11-22T05:49:32;1.85;;;0.60;;
41333;SDS011;27078;46.428;6.256;2023-11-22T05:51:58;2.83;;;0.70;;
41333;SDS011;27078;46.428;6.256;2023-11-22T05:54:23;1.75;;;0.60;;
41333;SDS011;27078;46.428;6.256;2023-11-22T05:56:49;1.25;;;0.60;;
41333;SDS011;27078;46.428;6.256;2023-11-22T05:59:14;2.42;;;0.90;;
41333;SDS011;27078;46.428;6.256;2023-11-22T06:01:40;3.40;;;0.80;;
41333;SDS011;27078;46.428;6.256;2023-11-22T06:04:05;1.73;;;1.20;;
41333;SDS011;27078;46.428;6.256;2023-11-22T06:06:34;2.63;;;1.40;;
41333;SDS011;27078;46.428;6.256;2023-11-22T06:08:59;3.67;;;1.00;;
41333;SDS011;27078;46.428;6.256;2023-11-22T06:11:25;2.33;;;0.52;;
41333;SDS011;27078;46.428;6.256;2023-11-22T06:13:50;3.05;;;1.90;;
41333;SDS011;27078;46.428;6.256;2023-11-22T06:16:16;2.10;;;1.40;;
41333;SDS011;27078;46.428;6.256;2023-11-22T06:18:42;4.40;;;2.40;;
41333;SDS011;27078;46.428;6.256;2023-11-22T06:21:09;4.75;;;2.30;;
41333;SDS011;27078;46.428;6.256;2023-11-22T06:23:34;5.53;;;2.50;;
41333;SDS011;27078;46.428;6.256;2023-11-22T06:26:00;4.28;;;2.60;;
41333;SDS011;27078;46.428;6.256;2023-11-22T06:28:25;4.18;;;2.42;;
41333;SDS011;27078;46.428;6.256;2023-11-22T06:30:51;3.60;;;1.52;;
41333;SDS011;27078;46.428;6.256;2023-11-22T06:33:17;3.97;;;2.53;;
41333;SDS011;27078;46.428;6.256;2023-11-22T06:35:43;5.43;;;2.80;;
41333;SDS011;27078;46.428;6.256;2023-11-22T06:38:08;5.53;;;2.88;;
41333;SDS011;27078;46.428;6.256;2023-11-22T06:40:34;5.20;;;3.00;;
41333;SDS011;27078;46.428;6.256;2023-11-22T06:42:59;4.15;;;2.90;;
41333;SDS011;27078;46.428;6.256;2023-11-22T06:45:25;4.97;;;2.08;;
41333;SDS011;27078;46.428;6.256;2023-11-22T06:47:50;4.75;;;3.10;;
41333;SDS011;27078;46.428;6.256;2023-11-22T06:50:16;6.05;;;3.50;;
41333;SDS011;27078;46.428;6.256;2023-11-22T06:52:42;5.05;;;2.90;;
41333;SDS011;27078;46.428;6.256;2023-11-22T06:55:07;4.25;;;2.30;;
41333;SDS011;27078;46.428;6.256;2023-11-22T06:57:34;5.68;;;3.17;;
41333;SDS011;27078;46.428;6.256;2023-11-22T07:00:00;5.50;;;2.78;;
41333;SDS011;27078;46.428;6.256;2023-11-22T07:02:29;3.45;;;1.40;;
41333;SDS011;27078;46.428;6.256;2023-11-22T07:04:55;4.65;;;2.17;;
41333;SDS011;27078;46.428;6.256;2023-11-22T07:07:20;2.63;;;1.23;;
41333;SDS011;27078;46.428;6.256;2023-11-22T07:09:46;3.10;;;1.13;;
41333;SDS011;27078;46.428;6.256;2023-11-22T07:12:11;2.53;;;1.13;;
41333;SDS011;27078;46.428;6.256;2023-11-22T07:14:37;2.35;;;0.80;;
41333;SDS011;27078;46.428;6.256;2023-11-22T07:17:03;1.02;;;0.60;;
41333;SDS011;27078;46.428;6.256;2023-11-22T07:19:31;1.65;;;0.57;;
41333;SDS011;27078;46.428;6.256;2023-11-22T07:21:57;1.25;;;0.60;;
41333;SDS011;27078;46.428;6.256;2023-11-22T07:24:23;2.03;;;0.70;;
41333;SDS011;27078;46.428;6.256;2023-11-22T07:26:48;1.90;;;0.57;;
41333;SDS011;27078;46.428;6.256;2023-11-22T07:29:14;1.00;;;0.60;;
41333;SDS011;27078;46.428;6.256;2023-11-22T07:31:39;1.50;;;0.52;;
41333;SDS011;27078;46.428;6.256;2023-11-22T07:34:04;1.50;;;0.68;;
41333;SDS011;27078;46.428;6.256;2023-11-22T07:36:31;2.97;;;1.48;;
41333;SDS011;27078;46.428;6.256;2023-11-22T07:38:56;1.98;;;0.65;;
41333;SDS011;27078;46.428;6.256;2023-11-22T07:41:22;1.83;;;0.75;;
41333;SDS011;27078;46.428;6.256;2023-11-22T07:43:47;0.70;;;0.50;;
41333;SDS011;27078;46.428;6.256;2023-11-22T07:46:13;3.17;;;1.00;;
41333;SDS011;27078;46.428;6.256;2023-11-22T07:48:39;1.92;;;0.80;;
41333;SDS011;27078;46.428;6.256;2023-11-22T07:51:06;1.77;;;0.88;;
41333;SDS011;27078;46.428;6.256;2023-11-22T07:53:31;2.50;;;1.25;;
41333;SDS011;27078;46.428;6.256;2023-11-22T07:55:59;1.30;;;0.80;;
41333;SDS011;27078;46.428;6.256;2023-11-22T07:58:29;2.13;;;1.42;;
41333;SDS011;27078;46.428;6.256;2023-11-22T08:01:00;2.97;;;1.70;;
41333;SDS011;27078;46.428;6.256;2023-11-22T08:03:27;4.13;;;1.60;;
41333;SDS011;27078;46.428;6.256;2023-11-22T08:05:53;3.25;;;1.70;;
41333;SDS011;27078;46.428;6.256;2023-11-22T08:08:23;2.90;;;0.90;;
41333;SDS011;27078;46.428;6.256;2023-11-22T08:10:50;4.57;;;0.77;;
41333;SDS011;27078;46.428;6.256;2023-11-22T08:13:18;2.88;;;0.70;;
41333;SDS011;27078;46.428;6.256;2023-11-22T08:15:44;2.20;;;1.08;;
41333;SDS011;27078;46.428;6.256;2023-11-22T08:18:11;10.73;;;1.10;;
41333;SDS011;27078;46.428;6.256;2023-11-22T08:20:37;3.80;;;0.63;;
41333;SDS011;27078;46.428;6.256;2023-11-22T08:23:02;5.60;;;0.70;;
41333;SDS011;27078;46.428;6.256;2023-11-22T08:25:28;7.63;;;0.60;;
41333;SDS011;27078;46.428;6.256;2023-11-22T08:27:54;1.60;;;0.40;;
41333;SDS011;27078;46.428;6.256;2023-11-22T08:30:19;5.47;;;0.60;;
41333;SDS011;27078;46.428;6.256;2023-11-22T08:32:45;4.63;;;1.50;;
41333;SDS011;27078;46.428;6.256;2023-11-22T08:35:16;1.88;;;1.15;;
41333;SDS011;27078;46.428;6.256;2023-11-22T08:37:41;5.15;;;1.42;;
41333;SDS011;27078;46.428;6.256;2023-11-22T08:40:07;2.85;;;1.20;;
41333;SDS011;27078;46.428;6.256;2023-11-22T08:42:36;2.55;;;1.13;;
41333;SDS011;27078;46.428;6.256;2023-11-22T08:45:02;3.50;;;1.30;;
41333;SDS011;27078;46.428;6.256;2023-11-22T08:47:28;4.35;;;1.90;;
41333;SDS011;27078;46.428;6.256;2023-11-22T08:49:55;2.10;;;1.20;;
41333;SDS011;27078;46.428;6.256;2023-11-22T08:52:21;3.03;;;1.40;;
41333;SDS011;27078;46.428;6.256;2023-11-22T08:54:48;2.35;;;1.30;;
41333;SDS011;27078;46.428;6.256;2023-11-22T08:57:13;2.30;;;1.20;;
41333;SDS011;27078;46.428;6.256;2023-11-22T08:59:39;2.45;;;1.02;;
41333;SDS011;27078;46.428;6.256;2023-11-22T09:02:04;3.45;;;1.60;;
41333;SDS011;27078;46.428;6.256;2023-11-22T09:04:32;1.58;;;0.98;;
41333;SDS011;27078;46.428;6.256;2023-11-22T09:06:58;1.73;;;0.90;;
41333;SDS011;27078;46.428;6.256;2023-11-22T09:09:24;2.90;;;1.15;;
41333;SDS011;27078;46.428;6.256;2023-11-22T09:11:56;1.10;;;0.50;;
41333;SDS011;27078;46.428;6.256;2023-11-22T09:14:24;2.30;;;0.70;;
41333;SDS011;27078;46.428;6.256;2023-11-22T09:16:50;2.22;;;1.50;;
41333;SDS011;27078;46.428;6.256;2023-11-22T09:19:22;4.63;;;0.70;;
41333;SDS011;27078;46.428;6.256;2023-11-22T09:21:49;4.35;;;2.58;;
41333;SDS011;27078;46.428;6.256;2023-11-22T09:24:15;0.98;;;0.50;;
41333;SDS011;27078;46.428;6.256;2023-11-22T09:26:40;1.08;;;0.35;;
41333;SDS011;27078;46.428;6.256;2023-11-22T09:29:07;2.60;;;0.47;;
41333;SDS011;27078;46.428;6.256;2023-11-22T09:31:32;1.73;;;0.40;;
41333;SDS011;27078;46.428;6.256;2023-11-22T09:33:58;0.77;;;0.35;;
41333;SDS011;27078;46.428;6.256;2023-11-22T09:36:23;1.10;;;0.50;;
41333;SDS011;27078;46.428;6.256;2023-11-22T09:38:52;2.35;;;0.52;;
41333;SDS011;27078;46.428;6.256;2023-11-22T09:41:17;1.98;;;0.40;;
41333;SDS011;27078;46.428;6.256;2023-11-22T09:43:43;4.07;;;2.08;;
41333;SDS011;27078;46.428;6.256;2023-11-22T09:46:11;1.35;;;0.70;;
41333;SDS011;27078;46.428;6.256;2023-11-22T09:48:38;0.93;;;0.28;;
41333;SDS011;27078;46.428;6.256;2023-11-22T09:51:08;0.93;;;0.38;;
41333;SDS011;27078;46.428;6.256;2023-11-22T09:53:51;1.67;;;0.40;;
41333;SDS011;27078;46.428;6.256;2023-11-22T09:56:18;1.05;;;0.35;;
41333;SDS011;27078;46.428;6.256;2023-11-22T09:58:44;1.08;;;0.43;;
41333;SDS011;27078;46.428;6.256;2023-11-22T10:01:13;1.52;;;0.30;;
41333;SDS011;27078;46.428;6.256;2023-11-22T10:03:39;0.82;;;0.40;;
41333;SDS011;27078;46.428;6.256;2023-11-22T10:06:05;0.70;;;0.32;;
41333;SDS011;27078;46.428;6.256;2023-11-22T10:08:31;1.33;;;0.45;;
41333;SDS011;27078;46.428;6.256;2023-11-22T10:10:58;1.08;;;0.45;;
41333;SDS011;27078;46.428;6.256;2023-11-22T10:13:24;0.82;;;0.40;;
41333;SDS011;27078;46.428;6.256;2023-11-22T10:15:50;0.57;;;0.32;;
41333;SDS011;27078;46.428;6.256;2023-11-22T10:18:16;1.08;;;0.40;;
41333;SDS011;27078;46.428;6.256;2023-11-22T10:20:45;0.63;;;0.30;;
41333;SDS011;27078;46.428;6.256;2023-11-22T10:23:12;0.88;;;0.30;;
41333;SDS011;27078;46.428;6.256;2023-11-22T10:25:48;1.85;;;0.50;;
41333;SDS011;27078;46.428;6.256;2023-11-22T10:28:16;1.92;;;0.40;;
41333;SDS011;27078;46.428;6.256;2023-11-22T10:30:45;2.03;;;0.40;;
41333;SDS011;27078;46.428;6.256;2023-11-22T10:33:11;1.25;;;0.50;;
41333;SDS011;27078;46.428;6.256;2023-11-22T10:35:41;1.67;;;0.40;;
41333;SDS011;27078;46.428;6.256;2023-11-22T10:38:16;1.85;;;0.50;;
41333;SDS011;27078;46.428;6.256;2023-11-22T10:40:43;1.48;;;0.60;;
41333;SDS011;27078;46.428;6.256;2023-11-22T10:43:12;2.40;;;0.47;;
41333;SDS011;27078;46.428;6.256;2023-11-22T10:45:38;0.63;;;0.30;;
41333;SDS011;27078;46.428;6.256;2023-11-22T10:48:04;0.70;;;0.30;;
41333;SDS011;27078;46.428;6.256;2023-11-22T10:50:33;0.63;;;0.30;;
41333;SDS011;27078;46.428;6.256;2023-11-22T10:52:59;5.88;;;0.52;;
41333;SDS011;27078;46.428;6.256;2023-11-22T10:55:26;3.00;;;0.30;;
41333;SDS011;27078;46.428;6.256;2023-11-22T10:57:54;2.90;;;0.60;;
41333;SDS011;27078;46.428;6.256;2023-11-22T11:00:26;0.90;;;0.30;;
41333;SDS011;27078;46.428;6.256;2023-11-22T11:02:58;0.60;;;0.30;;
41333;SDS011;27078;46.428;6.256;2023-11-22T11:05:27;1.33;;;0.30;;
41333;SDS011;27078;46.428;6.256;2023-11-22T11:07:58;1.00;;;0.30;;
41333;SDS011;27078;46.428;6.256;2023-11-22T11:10:34;2.42;;;0.43;;
41333;SDS011;27078;46.428;6.256;2023-11-22T11:13:00;1.25;;;0.30;;
41333;SDS011;27078;46.428;6.256;2023-11-22T11:15:26;2.05;;;0.30;;
41333;SDS011;27078;46.428;6.256;2023-11-22T11:17:53;0.60;;;0.30;;
41333;SDS011;27078;46.428;6.256;2023-11-22T11:20:19;1.20;;;0.40;;
41333;SDS011;27078;46.428;6.256;2023-11-22T11:22:48;0.68;;;0.32;;
41333;SDS011;27078;46.428;6.256;2023-11-22T11:25:15;0.65;;;0.30;;
41333;SDS011;27078;46.428;6.256;2023-11-22T11:27:44;0.68;;;0.30;;
41333;SDS011;27078;46.428;6.256;2023-11-22T11:32:57;1.02;;;0.38;;
41333;SDS011;27078;46.428;6.256;2023-11-22T11:35:38;1.77;;;0.40;;
41333;SDS011;27078;46.428;6.256;2023-11-22T11:38:07;1.80;;;0.40;;
41333;SDS011;27078;46.428;6.256;2023-11-22T11:40:34;0.60;;;0.30;;
41333;SDS011;27078;46.428;6.256;2023-11-22T11:43:00;1.48;;;0.40;;
41333;SDS011;27078;46.428;6.256;2023-11-22T11:45:27;0.68;;;0.30;;
41333;SDS011;27078;46.428;6.256;2023-11-22T11:47:53;0.50;;;0.20;;
41333;SDS011;27078;46.428;6.256;2023-11-22T11:50:20;1.00;;;0.30;;
41333;SDS011;27078;46.428;6.256;2023-11-22T11:52:46;0.95;;;0.30;;
41333;SDS011;27078;46.428;6.256;2023-11-22T11:55:12;0.20;;;0.20;;
41333;SDS011;27078;46.428;6.256;2023-11-22T11:57:37;0.73;;;0.20;;
41333;SDS011;27078;46.428;6.256;2023-11-22T12:00:03;0.95;;;0.13;;
41333;SDS011;27078;46.428;6.256;2023-11-22T12:02:30;1.23;;;0.30;;
41333;SDS011;27078;46.428;6.256;2023-11-22T12:04:55;0.45;;;0.30;;
41333;SDS011;27078;46.428;6.256;2023-11-22T12:07:21;0.40;;;0.20;;
41333;SDS011;27078;46.428;6.256;2023-11-22T12:09:46;0.50;;;0.20;;
41333;SDS011;27078;46.428;6.256;2023-11-22T12:12:12;0.32;;;0.20;;
41333;SDS011;27078;46.428;6.256;2023-11-22T12:14:38;0.93;;;0.20;;
41333;SDS011;27078;46.428;6.256;2023-11-22T12:17:04;0.82;;;0.25;;
41333;SDS011;27078;46.428;6.256;2023-11-22T12:19:31;0.38;;;0.20;;
41333;SDS011;27078;46.428;6.256;2023-11-22T12:21:56;0.65;;;0.30;;
41333;SDS011;27078;46.428;6.256;2023-11-22T12:24:22;0.40;;;0.30;;
41333;SDS011;27078;46.428;6.256;2023-11-22T12:26:49;0.60;;;0.20;;
41333;SDS011;27078;46.428;6.256;2023-11-22T12:29:15;0.30;;;0.20;;
41333;SDS011;27078;46.428;6.256;2023-11-22T12:31:50;0.60;;;0.20;;
41333;SDS011;27078;46.428;6.256;2023-11-22T12:34:17;0.35;;;0.20;;
41333;SDS011;27078;46.428;6.256;2023-11-22T12:36:45;0.30;;;0.10;;
41333;SDS011;27078;46.428;6.256;2023-11-22T12:39:12;0.60;;;0.20;;
41333;SDS011;27078;46.428;6.256;2023-11-22T12:41:45;1.35;;;0.20;;
41333;SDS011;27078;46.428;6.256;2023-11-22T12:44:15;0.38;;;0.10;;
41333;SDS011;27078;46.428;6.256;2023-11-22T12:46:47;0.75;;;0.20;;
41333;SDS011;27078;46.428;6.256;2023-11-22T12:49:25;0.82;;;0.20;;
41333;SDS011;27078;46.428;6.256;2023-11-22T12:51:52;0.95;;;0.35;;
41333;SDS011;27078;46.428;6.256;2023-11-22T12:54:19;0.40;;;0.20;;
41333;SDS011;27078;46.428;6.256;2023-11-22T12:56:49;0.20;;;0.10;;
41333;SDS011;27078;46.428;6.256;2023-11-22T12:59:15;0.30;;;0.10;;
41333;SDS011;27078;46.428;6.256;2023-11-22T13:01:41;0.30;;;0.10;;
41333;SDS011;27078;46.428;6.256;2023-11-22T13:04:07;0.20;;;0.10;;
41333;SDS011;27078;46.428;6.256;2023-11-22T13:06:33;0.43;;;0.20;;
41333;SDS011;27078;46.428;6.256;2023-11-22T13:08:58;0.60;;;0.20;;
41333;SDS011;27078;46.428;6.256;2023-11-22T13:11:23;0.50;;;0.22;;
41333;SDS011;27078;46.428;6.256;2023-11-22T13:13:49;0.30;;;0.20;;
41333;SDS011;27078;46.428;6.256;2023-11-22T13:16:15;0.52;;;0.20;;
41333;SDS011;27078;46.428;6.256;2023-11-22T13:18:43;0.50;;;0.13;;
41333;SDS011;27078;46.428;6.256;2023-11-22T13:21:09;1.20;;;0.15;;
41333;SDS011;27078;46.428;6.256;2023-11-22T13:23:34;1.75;;;0.15;;
41333;SDS011;27078;46.428;6.256;2023-11-22T13:26:00;1.20;;;0.20;;
41333;SDS011;27078;46.428;6.256;2023-11-22T13:28:25;0.43;;;0.10;;
41333;SDS011;27078;46.428;6.256;2023-11-22T13:30:51;0.30;;;0.10;;
41333;SDS011;27078;46.428;6.256;2023-11-22T13:33:17;0.25;;;0.17;;
41333;SDS011;27078;46.428;6.256;2023-11-22T13:35:42;0.45;;;0.20;;
41333;SDS011;27078;46.428;6.256;2023-11-22T13:38:09;0.30;;;0.20;;
41333;SDS011;27078;46.428;6.256;2023-11-22T13:40:37;0.20;;;0.10;;
41333;SDS011;27078;46.428;6.256;2023-11-22T13:43:06;0.30;;;0.20;;
41333;SDS011;27078;46.428;6.256;2023-11-22T13:45:32;0.30;;;0.17;;
41333;SDS011;27078;46.428;6.256;2023-11-22T13:47:59;0.50;;;0.20;;
41333;SDS011;27078;46.428;6.256;2023-11-22T13:50:31;0.75;;;0.10;;
41333;SDS011;27078;46.428;6.256;2023-11-22T13:52:58;0.93;;;0.15;;
41333;SDS011;27078;46.428;6.256;2023-11-22T13:55:24;1.00;;;0.20;;
41333;SDS011;27078;46.428;6.256;2023-11-22T14:00:18;1.05;;;0.30;;
41333;SDS011;27078;46.428;6.256;2023-11-22T14:02:51;1.55;;;0.32;;
41333;SDS011;27078;46.428;6.256;2023-11-22T14:05:24;0.90;;;0.30;;
41333;SDS011;27078;46.428;6.256;2023-11-22T14:07:54;0.63;;;0.32;;
41333;SDS011;27078;46.428;6.256;2023-11-22T14:10:20;1.17;;;0.40;;
41333;SDS011;27078;46.428;6.256;2023-11-22T14:12:47;0.70;;;0.45;;
41333;SDS011;27078;46.428;6.256;2023-11-22T14:15:13;2.03;;;0.50;;
41333;SDS011;27078;46.428;6.256;2023-11-22T14:17:39;2.60;;;0.70;;
41333;SDS011;27078;46.428;6.256;2023-11-22T14:20:10;1.77;;;0.50;;
41333;SDS011;27078;46.428;6.256;2023-11-22T14:22:37;0.90;;;0.60;;
41333;SDS011;27078;46.428;6.256;2023-11-22T14:25:04;2.10;;;0.70;;
41333;SDS011;27078;46.428;6.256;2023-11-22T14:27:32;1.58;;;0.60;;
41333;SDS011;27078;46.428;6.256;2023-11-22T14:29:58;1.67;;;0.50;;
41333;SDS011;27078;46.428;6.256;2023-11-22T14:32:24;2.30;;;0.70;;
41333;SDS011;27078;46.428;6.256;2023-11-22T14:34:49;1.13;;;0.60;;
41333;SDS011;27078;46.428;6.256;2023-11-22T14:37:14;1.27;;;0.65;;
41333;SDS011;27078;46.428;6.256;2023-11-22T14:39:43;2.15;;;0.85;;
41333;SDS011;27078;46.428;6.256;2023-11-22T14:42:09;1.67;;;0.70;;
41333;SDS011;27078;46.428;6.256;2023-11-22T14:44:36;1.13;;;0.60;;
41333;SDS011;27078;46.428;6.256;2023-11-22T14:47:02;1.48;;;0.80;;
41333;SDS011;27078;46.428;6.256;2023-11-22T14:49:32;0.75;;;0.50;;